Terminal Aerodrome Forecast
Issued by NWS

Home | Current Version | Previous Version | Text Only | Print | Product List | Glossary On
Versions: 1 2 3 4 5 6 7 8 9 10 11 12 13 14 15 16 17 18 19 20 21 22 23 24 25
000
FTUS42 KTAE 251700
TAFECP
TAF
KECP 251720Z 2518/2618 01008KT 5SM RA BR BKN025 OVC050
     FM260100 34011KT P6SM -RA FEW025 OVC050
     FM260600 34010KT P6SM VCSH OVC050
     FM261200 34008KT P6SM SCT250=

USA.gov is the U.S. government's official web portal to all federal, state and local government web resources and services.